PAFAPASK

Guest
Details From PAFA - Fairbanks Intl
To PASK - Selawik
Flight Number -
Tags Generated
Created
Modified
Stats Distance 318 nm / 589 km
Max Altitude 0 ft / 0 m
Waypoints 3
Social Downloads 0
Likes 0
Share VATSIM

Download

Looking for another format? Having issues loading an existing format? Contact us
Advertisement - Login to hide

Notes

Generated

Route

PAFA R0604 PASK

ID Type Via Altitude Latitude Longitude Leg Dist Tot Dist Heading (true) Name
O PAFA APT - 0 ft / 0 m 64.81606˚ -147.84656˚ - 0 nm - -
R0604 FIX - 0 ft / 0 m 66.59955˚ -159.97904˚ 317 nm 317 nm 295° / 284° -
O PASK APT - 0 ft / 0 m 66.60159˚ -159.99658˚ 0 nm 318 nm 286° / 286° -

Altitude Profile

Advertisement - Login to hide

Weather


0- 5 10 15 20 25 30 35+ Temperature / ° C

Clouds and Precipitation
Forecast for 2017-12-18 06:00 UTC. Updated 7 minutes ago

Ground ~20,000 ft ~40,000 ft Winds

PAFA

Details ICAO PAFA (FAI)
Name FAIRBANKS INTL
Region USA (Alaska)
Timezone America/Anchorage (UTC-9.0)
Stats Elevation 434 ft / 132 m (AMSL)
Location 64.813909° -147.855392°
Runways 3
Magnetic Variation 17.506° E

METAR

PAFA 180104Z 00000KT 1 3/4SM -FZDZSN BR BKN006 OVC010 M06/M07 A2968

Decode

TAF

TAF PAFA 172338Z 1800/1906 03003KT 1SM -FZDZSN BR OVC004 FM181800 VRB02KT 4SM -SN BR SCT008 OVC015

Decode

Departure Runways

ID Width Length Bearing (true) Bearing (mag) Surface Threshold Offset Overrun Length
01 75 ft / 23 m 2,892 ft / 881 m 38.04° 20.53° Gravel 0 ft / 0 m 0 ft / 0 m
01L 150 ft / 46 m 11,767 ft / 3,587 m 38.00° 20.49° Asphalt 750 ft / 229 m 0 ft / 0 m
01R 100 ft / 30 m 6,482 ft / 1,976 m 38.01° 20.50° Asphalt 0 ft / 0 m 0 ft / 0 m
19 75 ft / 23 m 2,892 ft / 881 m 218.05° 200.54° Gravel 0 ft / 0 m 0 ft / 0 m
19L 100 ft / 30 m 6,482 ft / 1,976 m 218.04° 200.53° Asphalt 0 ft / 0 m 0 ft / 0 m
19R 150 ft / 46 m 11,767 ft / 3,587 m 218.04° 200.53° Asphalt 750 ft / 229 m 0 ft / 0 m

PASK

Details ICAO PASK (WLK)
Name SELAWIK
Region USA (Alaska)
Timezone America/Anchorage (UTC-9.0)
Stats Elevation 13 ft / 4 m (AMSL)
Location 66.600159° -159.985875°
Runways 2
Magnetic Variation 12.742° E

METAR

PASK 180056Z AUTO 07008KT 9SM -SN OVC017 M10/M12 A2972 RMK AO2 SNB41 SLP061 P0000 T11001117 FZRANO $

Decode

TAF

Not found

Destination Runways

ID Width Length Bearing (true) Bearing (mag) Surface Threshold Offset Overrun Length
03 59 ft / 18 m 2,992 ft / 912 m 53.27° 40.53° Gravel 0 ft / 0 m 0 ft / 0 m
09 59 ft / 18 m 2,650 ft / 808 m 106.30° 93.56° Gravel 0 ft / 0 m 0 ft / 0 m
21 59 ft / 18 m 2,992 ft / 912 m 233.28° 220.54° Gravel 0 ft / 0 m 0 ft / 0 m
27 59 ft / 18 m 2,650 ft / 808 m 286.32° 273.58° Gravel 0 ft / 0 m 0 ft / 0 m